sensor_id;sensor_type;location;lat;lon;timestamp;P1;durP1;ratioP1;P2;durP2;ratioP2
29294;SDS011;16305;48.566;8.846;2022-10-23T00:01:36;8.23;;;5.57;;
29294;SDS011;16305;48.566;8.846;2022-10-23T00:04:04;11.10;;;5.30;;
29294;SDS011;16305;48.566;8.846;2022-10-23T00:06:32;7.07;;;4.50;;
29294;SDS011;16305;48.566;8.846;2022-10-23T00:08:59;5.53;;;4.40;;
29294;SDS011;16305;48.566;8.846;2022-10-23T00:11:26;10.13;;;4.60;;
29294;SDS011;16305;48.566;8.846;2022-10-23T00:13:54;7.57;;;4.20;;
29294;SDS011;16305;48.566;8.846;2022-10-23T00:16:22;5.13;;;3.90;;
29294;SDS011;16305;48.566;8.846;2022-10-23T00:18:47;6.30;;;3.97;;
29294;SDS011;16305;48.566;8.846;2022-10-23T00:21:14;5.77;;;4.10;;
29294;SDS011;16305;48.566;8.846;2022-10-23T00:23:41;7.07;;;4.07;;
29294;SDS011;16305;48.566;8.846;2022-10-23T00:26:07;4.30;;;3.87;;
29294;SDS011;16305;48.566;8.846;2022-10-23T00:28:35;9.33;;;5.03;;
29294;SDS011;16305;48.566;8.846;2022-10-23T00:31:01;5.80;;;4.57;;
29294;SDS011;16305;48.566;8.846;2022-10-23T00:33:27;5.27;;;3.97;;
29294;SDS011;16305;48.566;8.846;2022-10-23T00:35:53;7.43;;;3.20;;
29294;SDS011;16305;48.566;8.846;2022-10-23T00:38:18;5.20;;;3.60;;
29294;SDS011;16305;48.566;8.846;2022-10-23T00:40:44;8.43;;;3.77;;
29294;SDS011;16305;48.566;8.846;2022-10-23T00:43:17;7.73;;;3.80;;
29294;SDS011;16305;48.566;8.846;2022-10-23T00:45:44;6.53;;;4.30;;
29294;SDS011;16305;48.566;8.846;2022-10-23T00:48:10;4.80;;;4.03;;
29294;SDS011;16305;48.566;8.846;2022-10-23T00:50:36;6.97;;;4.40;;
29294;SDS011;16305;48.566;8.846;2022-10-23T00:53:02;5.33;;;3.97;;
29294;SDS011;16305;48.566;8.846;2022-10-23T00:55:28;5.73;;;4.30;;
29294;SDS011;16305;48.566;8.846;2022-10-23T00:57:56;4.97;;;3.73;;
29294;SDS011;16305;48.566;8.846;2022-10-23T01:00:23;6.87;;;3.90;;
29294;SDS011;16305;48.566;8.846;2022-10-23T01:02:51;5.10;;;4.00;;
29294;SDS011;16305;48.566;8.846;2022-10-23T01:05:19;5.83;;;3.73;;
29294;SDS011;16305;48.566;8.846;2022-10-23T01:08:33;8.07;;;3.20;;
29294;SDS011;16305;48.566;8.846;2022-10-23T01:11:25;6.73;;;3.60;;
29294;SDS011;16305;48.566;8.846;2022-10-23T01:14:05;6.43;;;3.77;;
29294;SDS011;16305;48.566;8.846;2022-10-23T01:17:12;4.50;;;3.00;;
29294;SDS011;16305;48.566;8.846;2022-10-23T01:19:49;6.20;;;3.90;;
29294;SDS011;16305;48.566;8.846;2022-10-23T01:27:55;7.00;;;4.20;;
29294;SDS011;16305;48.566;8.846;2022-10-23T01:30:27;5.47;;;4.07;;
29294;SDS011;16305;48.566;8.846;2022-10-23T01:33:14;5.83;;;3.83;;
29294;SDS011;16305;48.566;8.846;2022-10-23T01:35:50;4.13;;;3.73;;
29294;SDS011;16305;48.566;8.846;2022-10-23T01:41:34;5.77;;;3.77;;
29294;SDS011;16305;48.566;8.846;2022-10-23T01:44:10;5.23;;;4.40;;
29294;SDS011;16305;48.566;8.846;2022-10-23T01:46:39;9.20;;;5.77;;
29294;SDS011;16305;48.566;8.846;2022-10-23T01:49:07;9.33;;;7.30;;
29294;SDS011;16305;48.566;8.846;2022-10-23T01:51:35;10.30;;;6.93;;
29294;SDS011;16305;48.566;8.846;2022-10-23T01:54:05;7.93;;;6.70;;
29294;SDS011;16305;48.566;8.846;2022-10-23T01:56:34;10.20;;;7.83;;
29294;SDS011;16305;48.566;8.846;2022-10-23T01:59:04;10.77;;;7.07;;
29294;SDS011;16305;48.566;8.846;2022-10-23T02:01:34;12.77;;;7.53;;
29294;SDS011;16305;48.566;8.846;2022-10-23T02:04:04;11.33;;;7.17;;
29294;SDS011;16305;48.566;8.846;2022-10-23T02:06:32;15.93;;;7.67;;
29294;SDS011;16305;48.566;8.846;2022-10-23T02:08:57;13.37;;;8.03;;
29294;SDS011;16305;48.566;8.846;2022-10-23T02:11:23;8.43;;;6.33;;
29294;SDS011;16305;48.566;8.846;2022-10-23T02:24:53;6.23;;;4.77;;
29294;SDS011;16305;48.566;8.846;2022-10-23T02:27:31;5.70;;;4.83;;
29294;SDS011;16305;48.566;8.846;2022-10-23T02:30:05;11.30;;;5.70;;
29294;SDS011;16305;48.566;8.846;2022-10-23T02:32:32;7.77;;;6.17;;
29294;SDS011;16305;48.566;8.846;2022-10-23T02:35:00;10.43;;;6.10;;
29294;SDS011;16305;48.566;8.846;2022-10-23T02:37:26;6.97;;;5.50;;
29294;SDS011;16305;48.566;8.846;2022-10-23T02:39:51;9.40;;;4.50;;
29294;SDS011;16305;48.566;8.846;2022-10-23T02:45:11;8.97;;;6.67;;
29294;SDS011;16305;48.566;8.846;2022-10-23T02:47:54;11.03;;;7.90;;
29294;SDS011;16305;48.566;8.846;2022-10-23T02:50:36;11.90;;;8.53;;
29294;SDS011;16305;48.566;8.846;2022-10-23T02:58:47;12.27;;;8.90;;
29294;SDS011;16305;48.566;8.846;2022-10-23T03:01:26;9.33;;;8.00;;
29294;SDS011;16305;48.566;8.846;2022-10-23T03:03:59;12.30;;;8.17;;
29294;SDS011;16305;48.566;8.846;2022-10-23T03:06:27;13.00;;;9.10;;
29294;SDS011;16305;48.566;8.846;2022-10-23T03:08:54;11.70;;;7.67;;
29294;SDS011;16305;48.566;8.846;2022-10-23T03:11:24;10.33;;;6.20;;
29294;SDS011;16305;48.566;8.846;2022-10-23T03:13:50;9.73;;;7.73;;
29294;SDS011;16305;48.566;8.846;2022-10-23T03:16:16;10.23;;;7.67;;
29294;SDS011;16305;48.566;8.846;2022-10-23T03:18:42;10.90;;;7.83;;
29294;SDS011;16305;48.566;8.846;2022-10-23T03:21:07;7.37;;;6.13;;
29294;SDS011;16305;48.566;8.846;2022-10-23T03:23:33;8.43;;;6.73;;
29294;SDS011;16305;48.566;8.846;2022-10-23T03:25:59;7.63;;;5.40;;
29294;SDS011;16305;48.566;8.846;2022-10-23T03:28:24;6.33;;;5.40;;
29294;SDS011;16305;48.566;8.846;2022-10-23T03:30:50;5.30;;;4.80;;
29294;SDS011;16305;48.566;8.846;2022-10-23T03:33:16;9.60;;;5.07;;
29294;SDS011;16305;48.566;8.846;2022-10-23T03:35:42;7.20;;;5.23;;
29294;SDS011;16305;48.566;8.846;2022-10-23T03:38:07;4.97;;;4.37;;
29294;SDS011;16305;48.566;8.846;2022-10-23T03:40:33;8.97;;;6.70;;
29294;SDS011;16305;48.566;8.846;2022-10-23T03:42:58;7.43;;;6.33;;
29294;SDS011;16305;48.566;8.846;2022-10-23T03:45:24;10.03;;;5.67;;
29294;SDS011;16305;48.566;8.846;2022-10-23T03:47:50;8.63;;;5.87;;
29294;SDS011;16305;48.566;8.846;2022-10-23T03:50:16;7.87;;;6.33;;
29294;SDS011;16305;48.566;8.846;2022-10-23T03:52:42;9.40;;;7.03;;
29294;SDS011;16305;48.566;8.846;2022-10-23T03:55:08;14.97;;;6.10;;
29294;SDS011;16305;48.566;8.846;2022-10-23T03:57:34;8.60;;;4.93;;
29294;SDS011;16305;48.566;8.846;2022-10-23T04:00:00;4.53;;;3.90;;
29294;SDS011;16305;48.566;8.846;2022-10-23T04:02:26;7.43;;;3.93;;
29294;SDS011;16305;48.566;8.846;2022-10-23T04:04:51;7.90;;;4.63;;
29294;SDS011;16305;48.566;8.846;2022-10-23T04:07:17;7.27;;;4.93;;
29294;SDS011;16305;48.566;8.846;2022-10-23T04:09:42;5.87;;;5.27;;
29294;SDS011;16305;48.566;8.846;2022-10-23T04:12:08;6.37;;;5.20;;
29294;SDS011;16305;48.566;8.846;2022-10-23T04:14:33;6.43;;;5.37;;
29294;SDS011;16305;48.566;8.846;2022-10-23T04:16:59;6.80;;;4.90;;
29294;SDS011;16305;48.566;8.846;2022-10-23T04:19:24;7.77;;;5.30;;
29294;SDS011;16305;48.566;8.846;2022-10-23T04:21:50;6.17;;;5.57;;
29294;SDS011;16305;48.566;8.846;2022-10-23T04:24:15;7.87;;;5.50;;
29294;SDS011;16305;48.566;8.846;2022-10-23T04:26:41;6.57;;;5.90;;
29294;SDS011;16305;48.566;8.846;2022-10-23T04:29:06;10.77;;;6.10;;
29294;SDS011;16305;48.566;8.846;2022-10-23T04:31:32;11.07;;;6.20;;
29294;SDS011;16305;48.566;8.846;2022-10-23T04:33:57;10.23;;;7.07;;
29294;SDS011;16305;48.566;8.846;2022-10-23T04:36:23;8.93;;;6.67;;
29294;SDS011;16305;48.566;8.846;2022-10-23T04:38:48;8.87;;;6.60;;
29294;SDS011;16305;48.566;8.846;2022-10-23T04:41:14;7.53;;;6.00;;
29294;SDS011;16305;48.566;8.846;2022-10-23T04:43:40;7.70;;;6.83;;
29294;SDS011;16305;48.566;8.846;2022-10-23T04:46:05;7.43;;;6.03;;
29294;SDS011;16305;48.566;8.846;2022-10-23T04:48:31;13.30;;;6.63;;
29294;SDS011;16305;48.566;8.846;2022-10-23T04:50:58;6.70;;;5.97;;
29294;SDS011;16305;48.566;8.846;2022-10-23T04:53:25;7.80;;;6.33;;
29294;SDS011;16305;48.566;8.846;2022-10-23T04:55:52;7.17;;;5.00;;
29294;SDS011;16305;48.566;8.846;2022-10-23T04:58:19;6.40;;;5.10;;
29294;SDS011;16305;48.566;8.846;2022-10-23T05:00:45;5.37;;;4.63;;
29294;SDS011;16305;48.566;8.846;2022-10-23T05:03:11;4.50;;;3.73;;
29294;SDS011;16305;48.566;8.846;2022-10-23T05:05:37;16.27;;;4.80;;
29294;SDS011;16305;48.566;8.846;2022-10-23T05:08:02;8.10;;;5.20;;
29294;SDS011;16305;48.566;8.846;2022-10-23T05:10:28;5.40;;;4.90;;
29294;SDS011;16305;48.566;8.846;2022-10-23T05:12:54;9.23;;;6.77;;
29294;SDS011;16305;48.566;8.846;2022-10-23T05:15:19;11.20;;;6.37;;
29294;SDS011;16305;48.566;8.846;2022-10-23T05:17:45;6.63;;;5.80;;
29294;SDS011;16305;48.566;8.846;2022-10-23T05:20:15;6.20;;;4.83;;
29294;SDS011;16305;48.566;8.846;2022-10-23T05:22:44;6.17;;;5.50;;
29294;SDS011;16305;48.566;8.846;2022-10-23T05:25:12;9.83;;;6.00;;
29294;SDS011;16305;48.566;8.846;2022-10-23T05:27:38;8.80;;;7.33;;
29294;SDS011;16305;48.566;8.846;2022-10-23T05:30:04;7.47;;;5.70;;
29294;SDS011;16305;48.566;8.846;2022-10-23T05:32:30;7.60;;;5.57;;
29294;SDS011;16305;48.566;8.846;2022-10-23T05:34:57;8.00;;;5.80;;
29294;SDS011;16305;48.566;8.846;2022-10-23T05:37:25;9.27;;;6.97;;
29294;SDS011;16305;48.566;8.846;2022-10-23T05:39:51;7.63;;;6.60;;
29294;SDS011;16305;48.566;8.846;2022-10-23T05:42:17;8.53;;;6.97;;
29294;SDS011;16305;48.566;8.846;2022-10-23T05:44:42;7.90;;;5.57;;
29294;SDS011;16305;48.566;8.846;2022-10-23T05:47:08;5.70;;;5.10;;
29294;SDS011;16305;48.566;8.846;2022-10-23T05:49:33;14.00;;;5.97;;
29294;SDS011;16305;48.566;8.846;2022-10-23T05:51:59;7.77;;;5.53;;
29294;SDS011;16305;48.566;8.846;2022-10-23T05:54:24;8.23;;;6.33;;
29294;SDS011;16305;48.566;8.846;2022-10-23T05:56:50;9.10;;;6.47;;
29294;SDS011;16305;48.566;8.846;2022-10-23T05:59:16;7.23;;;6.40;;
29294;SDS011;16305;48.566;8.846;2022-10-23T06:01:41;8.63;;;6.97;;
29294;SDS011;16305;48.566;8.846;2022-10-23T06:04:07;9.87;;;7.57;;
29294;SDS011;16305;48.566;8.846;2022-10-23T06:06:33;8.47;;;6.90;;
29294;SDS011;16305;48.566;8.846;2022-10-23T06:09:00;10.03;;;7.27;;
29294;SDS011;16305;48.566;8.846;2022-10-23T06:11:26;7.33;;;6.27;;
29294;SDS011;16305;48.566;8.846;2022-10-23T06:13:51;7.60;;;6.60;;
29294;SDS011;16305;48.566;8.846;2022-10-23T06:16:18;9.07;;;7.30;;
29294;SDS011;16305;48.566;8.846;2022-10-23T06:18:45;8.80;;;6.90;;
29294;SDS011;16305;48.566;8.846;2022-10-23T06:21:12;7.03;;;5.70;;
29294;SDS011;16305;48.566;8.846;2022-10-23T06:23:39;6.60;;;5.07;;
29294;SDS011;16305;48.566;8.846;2022-10-23T06:26:05;5.63;;;4.77;;
29294;SDS011;16305;48.566;8.846;2022-10-23T06:28:33;5.83;;;4.73;;
29294;SDS011;16305;48.566;8.846;2022-10-23T06:31:02;5.47;;;4.13;;
29294;SDS011;16305;48.566;8.846;2022-10-23T06:33:35;5.30;;;3.87;;
29294;SDS011;16305;48.566;8.846;2022-10-23T06:36:01;5.37;;;3.67;;
29294;SDS011;16305;48.566;8.846;2022-10-23T06:38:28;5.47;;;3.60;;
29294;SDS011;16305;48.566;8.846;2022-10-23T06:40:54;5.50;;;4.20;;
29294;SDS011;16305;48.566;8.846;2022-10-23T06:43:20;5.33;;;4.67;;
29294;SDS011;16305;48.566;8.846;2022-10-23T06:45:46;6.37;;;3.57;;
29294;SDS011;16305;48.566;8.846;2022-10-23T06:48:12;6.03;;;4.70;;
29294;SDS011;16305;48.566;8.846;2022-10-23T06:50:38;6.70;;;4.00;;
29294;SDS011;16305;48.566;8.846;2022-10-23T06:53:04;8.17;;;5.00;;
29294;SDS011;16305;48.566;8.846;2022-10-23T06:55:30;8.40;;;5.43;;
29294;SDS011;16305;48.566;8.846;2022-10-23T06:57:57;7.83;;;4.47;;
29294;SDS011;16305;48.566;8.846;2022-10-23T07:00:23;8.67;;;5.33;;
29294;SDS011;16305;48.566;8.846;2022-10-23T07:02:49;8.53;;;4.90;;
29294;SDS011;16305;48.566;8.846;2022-10-23T07:05:16;6.27;;;4.47;;
29294;SDS011;16305;48.566;8.846;2022-10-23T07:07:42;7.00;;;5.60;;
29294;SDS011;16305;48.566;8.846;2022-10-23T07:10:08;6.83;;;5.40;;
29294;SDS011;16305;48.566;8.846;2022-10-23T07:12:33;8.17;;;6.07;;
29294;SDS011;16305;48.566;8.846;2022-10-23T07:14:59;6.97;;;6.00;;
29294;SDS011;16305;48.566;8.846;2022-10-23T07:17:25;8.10;;;5.90;;
29294;SDS011;16305;48.566;8.846;2022-10-23T07:19:52;7.37;;;6.60;;
29294;SDS011;16305;48.566;8.846;2022-10-23T07:22:17;9.13;;;7.20;;
29294;SDS011;16305;48.566;8.846;2022-10-23T07:24:43;10.77;;;8.17;;
29294;SDS011;16305;48.566;8.846;2022-10-23T07:27:08;11.20;;;8.63;;
29294;SDS011;16305;48.566;8.846;2022-10-23T07:29:34;10.90;;;9.27;;
29294;SDS011;16305;48.566;8.846;2022-10-23T07:31:59;11.60;;;8.40;;
29294;SDS011;16305;48.566;8.846;2022-10-23T07:34:25;12.30;;;8.33;;
29294;SDS011;16305;48.566;8.846;2022-10-23T07:36:51;13.67;;;8.03;;
29294;SDS011;16305;48.566;8.846;2022-10-23T07:39:18;14.73;;;8.50;;
29294;SDS011;16305;48.566;8.846;2022-10-23T07:41:46;9.50;;;7.13;;
29294;SDS011;16305;48.566;8.846;2022-10-23T07:44:12;8.87;;;7.50;;
29294;SDS011;16305;48.566;8.846;2022-10-23T07:46:37;8.10;;;7.30;;
29294;SDS011;16305;48.566;8.846;2022-10-23T07:49:03;10.00;;;6.87;;
29294;SDS011;16305;48.566;8.846;2022-10-23T07:51:28;11.67;;;7.70;;
29294;SDS011;16305;48.566;8.846;2022-10-23T07:53:54;7.40;;;6.67;;
29294;SDS011;16305;48.566;8.846;2022-10-23T07:56:21;7.60;;;6.33;;
29294;SDS011;16305;48.566;8.846;2022-10-23T07:58:49;7.20;;;5.70;;
29294;SDS011;16305;48.566;8.846;2022-10-23T08:01:18;7.50;;;5.90;;
29294;SDS011;16305;48.566;8.846;2022-10-23T08:04:06;7.50;;;5.70;;
29294;SDS011;16305;48.566;8.846;2022-10-23T08:06:32;9.77;;;5.90;;
29294;SDS011;16305;48.566;8.846;2022-10-23T08:08:59;6.50;;;5.23;;
29294;SDS011;16305;48.566;8.846;2022-10-23T08:11:24;7.00;;;6.27;;
29294;SDS011;16305;48.566;8.846;2022-10-23T08:13:55;6.40;;;5.77;;
29294;SDS011;16305;48.566;8.846;2022-10-23T08:16:22;6.93;;;5.90;;
29294;SDS011;16305;48.566;8.846;2022-10-23T08:18:48;7.03;;;6.00;;
29294;SDS011;16305;48.566;8.846;2022-10-23T08:21:15;6.60;;;5.37;;
29294;SDS011;16305;48.566;8.846;2022-10-23T08:23:41;8.93;;;5.67;;
29294;SDS011;16305;48.566;8.846;2022-10-23T08:26:08;8.03;;;5.43;;
29294;SDS011;16305;48.566;8.846;2022-10-23T08:28:34;8.87;;;6.53;;
29294;SDS011;16305;48.566;8.846;2022-10-23T08:31:13;7.93;;;5.60;;
29294;SDS011;16305;48.566;8.846;2022-10-23T08:33:40;7.60;;;5.67;;
29294;SDS011;16305;48.566;8.846;2022-10-23T08:36:14;10.43;;;5.50;;
29294;SDS011;16305;48.566;8.846;2022-10-23T08:38:45;8.77;;;6.43;;
29294;SDS011;16305;48.566;8.846;2022-10-23T08:41:14;7.60;;;5.73;;
29294;SDS011;16305;48.566;8.846;2022-10-23T08:43:45;9.50;;;6.90;;
29294;SDS011;16305;48.566;8.846;2022-10-23T08:46:16;9.03;;;6.77;;
29294;SDS011;16305;48.566;8.846;2022-10-23T08:48:54;10.73;;;7.10;;
29294;SDS011;16305;48.566;8.846;2022-10-23T08:51:41;8.40;;;5.67;;
29294;SDS011;16305;48.566;8.846;2022-10-23T08:54:11;7.90;;;7.10;;
29294;SDS011;16305;48.566;8.846;2022-10-23T08:56:41;6.50;;;5.70;;
29294;SDS011;16305;48.566;8.846;2022-10-23T08:59:18;3.97;;;3.60;;
29294;SDS011;16305;48.566;8.846;2022-10-23T09:04:46;3.50;;;2.87;;
29294;SDS011;16305;48.566;8.846;2022-10-23T09:07:18;3.00;;;2.50;;
29294;SDS011;16305;48.566;8.846;2022-10-23T09:10:13;4.77;;;3.17;;
29294;SDS011;16305;48.566;8.846;2022-10-23T09:13:00;5.77;;;3.77;;
29294;SDS011;16305;48.566;8.846;2022-10-23T09:15:57;6.20;;;4.17;;
29294;SDS011;16305;48.566;8.846;2022-10-23T09:18:36;4.90;;;4.40;;
29294;SDS011;16305;48.566;8.846;2022-10-23T09:21:07;5.20;;;4.50;;
29294;SDS011;16305;48.566;8.846;2022-10-23T09:23:34;4.07;;;3.67;;
29294;SDS011;16305;48.566;8.846;2022-10-23T09:26:00;5.53;;;3.83;;
29294;SDS011;16305;48.566;8.846;2022-10-23T09:28:29;5.30;;;4.37;;
29294;SDS011;16305;48.566;8.846;2022-10-23T09:31:08;4.60;;;4.20;;
29294;SDS011;16305;48.566;8.846;2022-10-23T09:33:36;8.40;;;4.40;;
29294;SDS011;16305;48.566;8.846;2022-10-23T09:38:30;5.53;;;4.20;;
29294;SDS011;16305;48.566;8.846;2022-10-23T09:41:12;4.20;;;3.80;;
29294;SDS011;16305;48.566;8.846;2022-10-23T09:43:38;7.30;;;3.97;;
29294;SDS011;16305;48.566;8.846;2022-10-23T09:46:04;3.30;;;3.00;;
29294;SDS011;16305;48.566;8.846;2022-10-23T09:48:31;4.13;;;3.50;;
29294;SDS011;16305;48.566;8.846;2022-10-23T09:50:59;4.50;;;3.60;;
29294;SDS011;16305;48.566;8.846;2022-10-23T09:53:30;3.50;;;3.20;;
29294;SDS011;16305;48.566;8.846;2022-10-23T09:56:19;3.70;;;3.40;;
29294;SDS011;16305;48.566;8.846;2022-10-23T09:58:56;3.67;;;2.87;;
29294;SDS011;16305;48.566;8.846;2022-10-23T10:01:30;4.37;;;3.40;;
29294;SDS011;16305;48.566;8.846;2022-10-23T10:04:09;3.50;;;2.97;;
29294;SDS011;16305;48.566;8.846;2022-10-23T10:06:34;4.97;;;2.47;;
29294;SDS011;16305;48.566;8.846;2022-10-23T10:09:07;2.63;;;2.30;;
29294;SDS011;16305;48.566;8.846;2022-10-23T10:11:40;2.23;;;1.73;;
29294;SDS011;16305;48.566;8.846;2022-10-23T10:17:16;2.27;;;1.57;;
29294;SDS011;16305;48.566;8.846;2022-10-23T10:39:26;2.80;;;1.10;;
29294;SDS011;16305;48.566;8.846;2022-10-23T10:45:03;2.93;;;1.10;;
29294;SDS011;16305;48.566;8.846;2022-10-23T10:50:42;1.03;;;0.93;;
29294;SDS011;16305;48.566;8.846;2022-10-23T10:56:15;1.00;;;0.90;;
29294;SDS011;16305;48.566;8.846;2022-10-23T10:58:53;1.13;;;1.00;;
29294;SDS011;16305;48.566;8.846;2022-10-23T11:01:27;1.50;;;1.00;;
29294;SDS011;16305;48.566;8.846;2022-10-23T11:04:27;1.90;;;1.00;;
29294;SDS011;16305;48.566;8.846;2022-10-23T11:07:06;1.20;;;1.10;;
29294;SDS011;16305;48.566;8.846;2022-10-23T11:09:37;3.87;;;1.20;;
29294;SDS011;16305;48.566;8.846;2022-10-23T11:12:04;3.47;;;1.60;;
29294;SDS011;16305;48.566;8.846;2022-10-23T11:14:30;2.13;;;1.40;;
29294;SDS011;16305;48.566;8.846;2022-10-23T11:17:07;2.57;;;1.00;;
29294;SDS011;16305;48.566;8.846;2022-10-23T11:19:45;2.33;;;1.30;;
29294;SDS011;16305;48.566;8.846;2022-10-23T11:30:11;1.93;;;1.10;;
29294;SDS011;16305;48.566;8.846;2022-10-23T11:33:06;1.40;;;0.87;;
29294;SDS011;16305;48.566;8.846;2022-10-23T11:40:36;3.07;;;0.90;;
29294;SDS011;16305;48.566;8.846;2022-10-23T11:43:11;2.40;;;0.90;;
29294;SDS011;16305;48.566;8.846;2022-10-23T11:45:38;1.10;;;1.00;;
29294;SDS011;16305;48.566;8.846;2022-10-23T11:48:05;1.30;;;1.10;;
29294;SDS011;16305;48.566;8.846;2022-10-23T11:50:48;1.23;;;0.77;;
29294;SDS011;16305;48.566;8.846;2022-10-23T11:53:49;1.27;;;0.97;;
29294;SDS011;16305;48.566;8.846;2022-10-23T11:58:40;0.93;;;0.93;;
29294;SDS011;16305;48.566;8.846;2022-10-23T12:06:46;2.70;;;0.77;;
29294;SDS011;16305;48.566;8.846;2022-10-23T12:14:39;1.00;;;0.90;;
29294;SDS011;16305;48.566;8.846;2022-10-23T12:19:49;1.20;;;0.90;;
29294;SDS011;16305;48.566;8.846;2022-10-23T12:22:16;1.67;;;0.90;;
29294;SDS011;16305;48.566;8.846;2022-10-23T12:24:51;0.60;;;0.60;;
29294;SDS011;16305;48.566;8.846;2022-10-23T12:27:31;2.03;;;0.80;;
29294;SDS011;16305;48.566;8.846;2022-10-23T12:30:23;0.70;;;0.70;;
29294;SDS011;16305;48.566;8.846;2022-10-23T12:33:00;1.03;;;0.83;;
29294;SDS011;16305;48.566;8.846;2022-10-23T12:35:55;1.33;;;0.70;;
29294;SDS011;16305;48.566;8.846;2022-10-23T12:38:41;2.53;;;0.90;;
29294;SDS011;16305;48.566;8.846;2022-10-23T12:41:11;0.73;;;0.73;;
29294;SDS011;16305;48.566;8.846;2022-10-23T12:43:39;1.17;;;0.70;;
29294;SDS011;16305;48.566;8.846;2022-10-23T12:48:45;0.97;;;0.70;;
29294;SDS011;16305;48.566;8.846;2022-10-23T12:51:15;2.20;;;1.07;;
29294;SDS011;16305;48.566;8.846;2022-10-23T12:53:49;1.13;;;1.00;;
29294;SDS011;16305;48.566;8.846;2022-10-23T12:56:15;1.83;;;0.85;;
29294;SDS011;16305;48.566;8.846;2022-10-23T12:58:46;0.90;;;0.90;;
29294;SDS011;16305;48.566;8.846;2022-10-23T13:01:30;1.10;;;0.90;;
29294;SDS011;16305;48.566;8.846;2022-10-23T13:04:07;1.55;;;1.00;;
29294;SDS011;16305;48.566;8.846;2022-10-23T13:06:51;1.90;;;0.80;;
29294;SDS011;16305;48.566;8.846;2022-10-23T13:09:28;1.00;;;0.70;;
29294;SDS011;16305;48.566;8.846;2022-10-23T13:12:06;1.58;;;0.80;;
29294;SDS011;16305;48.566;8.846;2022-10-23T13:14:34;1.33;;;0.63;;
29294;SDS011;16305;48.566;8.846;2022-10-23T13:17:20;2.20;;;0.75;;
29294;SDS011;16305;48.566;8.846;2022-10-23T13:20:03;3.78;;;0.60;;
29294;SDS011;16305;48.566;8.846;2022-10-23T13:22:44;0.60;;;0.57;;
29294;SDS011;16305;48.566;8.846;2022-10-23T13:25:21;2.15;;;0.40;;
29294;SDS011;16305;48.566;8.846;2022-10-23T13:27:49;0.50;;;0.50;;
29294;SDS011;16305;48.566;8.846;2022-10-23T13:30:28;3.30;;;0.60;;
29294;SDS011;16305;48.566;8.846;2022-10-23T13:32:55;0.90;;;0.50;;
29294;SDS011;16305;48.566;8.846;2022-10-23T13:35:21;1.67;;;0.50;;
29294;SDS011;16305;48.566;8.846;2022-10-23T13:37:47;0.85;;;0.50;;
29294;SDS011;16305;48.566;8.846;2022-10-23T13:40:19;1.03;;;0.60;;
29294;SDS011;16305;48.566;8.846;2022-10-23T13:42:47;0.43;;;0.43;;
29294;SDS011;16305;48.566;8.846;2022-10-23T13:45:15;0.93;;;0.60;;
29294;SDS011;16305;48.566;8.846;2022-10-23T13:47:44;0.90;;;0.70;;
29294;SDS011;16305;48.566;8.846;2022-10-23T13:50:09;3.30;;;0.60;;
29294;SDS011;16305;48.566;8.846;2022-10-23T13:52:35;0.50;;;0.50;;
29294;SDS011;16305;48.566;8.846;2022-10-23T13:55:01;2.40;;;0.80;;
29294;SDS011;16305;48.566;8.846;2022-10-23T13:57:28;0.80;;;0.73;;
29294;SDS011;16305;48.566;8.846;2022-10-23T13:59:53;1.23;;;0.70;;
29294;SDS011;16305;48.566;8.846;2022-10-23T14:02:20;1.60;;;0.80;;
29294;SDS011;16305;48.566;8.846;2022-10-23T14:04:47;1.67;;;0.80;;
29294;SDS011;16305;48.566;8.846;2022-10-23T14:07:14;0.67;;;0.60;;
29294;SDS011;16305;48.566;8.846;2022-10-23T14:09:39;0.70;;;0.60;;
29294;SDS011;16305;48.566;8.846;2022-10-23T14:12:05;0.63;;;0.53;;
29294;SDS011;16305;48.566;8.846;2022-10-23T14:14:31;2.27;;;0.70;;
29294;SDS011;16305;48.566;8.846;2022-10-23T14:16:57;2.00;;;0.70;;
29294;SDS011;16305;48.566;8.846;2022-10-23T14:19:23;0.73;;;0.70;;
29294;SDS011;16305;48.566;8.846;2022-10-23T14:21:48;1.23;;;0.90;;
29294;SDS011;16305;48.566;8.846;2022-10-23T14:24:14;2.17;;;0.93;;
29294;SDS011;16305;48.566;8.846;2022-10-23T14:26:39;1.47;;;1.37;;
29294;SDS011;16305;48.566;8.846;2022-10-23T14:29:07;1.43;;;1.10;;
29294;SDS011;16305;48.566;8.846;2022-10-23T14:31:32;2.63;;;0.90;;
29294;SDS011;16305;48.566;8.846;2022-10-23T14:33:58;2.07;;;1.00;;
29294;SDS011;16305;48.566;8.846;2022-10-23T14:36:25;1.10;;;1.00;;
29294;SDS011;16305;48.566;8.846;2022-10-23T14:38:55;4.67;;;1.30;;
29294;SDS011;16305;48.566;8.846;2022-10-23T14:41:21;1.80;;;0.90;;
29294;SDS011;16305;48.566;8.846;2022-10-23T14:43:48;1.60;;;0.87;;
29294;SDS011;16305;48.566;8.846;2022-10-23T14:46:14;2.60;;;1.10;;
29294;SDS011;16305;48.566;8.846;2022-10-23T14:48:42;1.10;;;1.00;;
29294;SDS011;16305;48.566;8.846;2022-10-23T14:51:17;1.40;;;1.00;;
29294;SDS011;16305;48.566;8.846;2022-10-23T14:53:47;1.47;;;0.90;;
29294;SDS011;16305;48.566;8.846;2022-10-23T14:56:13;1.67;;;1.10;;
29294;SDS011;16305;48.566;8.846;2022-10-23T14:58:39;3.40;;;1.00;;
29294;SDS011;16305;48.566;8.846;2022-10-23T15:01:06;2.37;;;0.97;;
29294;SDS011;16305;48.566;8.846;2022-10-23T15:03:32;1.60;;;1.00;;
29294;SDS011;16305;48.566;8.846;2022-10-23T15:05:57;2.43;;;1.70;;
29294;SDS011;16305;48.566;8.846;2022-10-23T15:08:23;1.20;;;1.10;;
29294;SDS011;16305;48.566;8.846;2022-10-23T15:10:49;0.90;;;0.90;;
29294;SDS011;16305;48.566;8.846;2022-10-23T15:13:14;1.80;;;1.00;;
29294;SDS011;16305;48.566;8.846;2022-10-23T15:15:40;1.10;;;0.90;;
29294;SDS011;16305;48.566;8.846;2022-10-23T15:18:06;2.83;;;1.20;;
29294;SDS011;16305;48.566;8.846;2022-10-23T15:20:31;1.13;;;0.90;;
29294;SDS011;16305;48.566;8.846;2022-10-23T15:22:57;2.80;;;1.10;;
29294;SDS011;16305;48.566;8.846;2022-10-23T15:25:24;1.53;;;1.00;;
29294;SDS011;16305;48.566;8.846;2022-10-23T15:27:49;1.80;;;1.30;;
29294;SDS011;16305;48.566;8.846;2022-10-23T15:30:15;1.80;;;1.13;;
29294;SDS011;16305;48.566;8.846;2022-10-23T15:32:41;2.93;;;1.00;;
29294;SDS011;16305;48.566;8.846;2022-10-23T15:35:07;1.27;;;1.17;;
29294;SDS011;16305;48.566;8.846;2022-10-23T15:37:32;2.47;;;1.20;;
29294;SDS011;16305;48.566;8.846;2022-10-23T15:39:58;1.40;;;1.17;;
29294;SDS011;16305;48.566;8.846;2022-10-23T15:42:24;2.63;;;1.20;;
29294;SDS011;16305;48.566;8.846;2022-10-23T15:44:49;2.20;;;1.10;;
29294;SDS011;16305;48.566;8.846;2022-10-23T15:47:15;2.17;;;1.30;;
29294;SDS011;16305;48.566;8.846;2022-10-23T15:49:40;2.93;;;1.50;;
29294;SDS011;16305;48.566;8.846;2022-10-23T15:52:06;2.87;;;1.40;;
29294;SDS011;16305;48.566;8.846;2022-10-23T15:54:33;1.70;;;1.47;;
29294;SDS011;16305;48.566;8.846;2022-10-23T15:56:59;4.17;;;2.80;;
29294;SDS011;16305;48.566;8.846;2022-10-23T15:59:26;7.17;;;3.50;;
29294;SDS011;16305;48.566;8.846;2022-10-23T16:01:52;4.50;;;3.07;;
29294;SDS011;16305;48.566;8.846;2022-10-23T16:04:19;3.53;;;2.60;;
29294;SDS011;16305;48.566;8.846;2022-10-23T16:06:45;3.10;;;2.70;;
29294;SDS011;16305;48.566;8.846;2022-10-23T16:09:11;3.47;;;2.80;;
29294;SDS011;16305;48.566;8.846;2022-10-23T16:11:38;2.60;;;2.40;;
29294;SDS011;16305;48.566;8.846;2022-10-23T16:14:05;2.93;;;2.20;;
29294;SDS011;16305;48.566;8.846;2022-10-23T16:16:32;2.50;;;2.30;;
29294;SDS011;16305;48.566;8.846;2022-10-23T16:18:58;2.80;;;2.17;;
29294;SDS011;16305;48.566;8.846;2022-10-23T16:21:26;11.87;;;2.70;;
29294;SDS011;16305;48.566;8.846;2022-10-23T16:23:54;4.03;;;2.40;;
29294;SDS011;16305;48.566;8.846;2022-10-23T16:26:21;4.47;;;3.70;;
29294;SDS011;16305;48.566;8.846;2022-10-23T16:28:51;6.63;;;4.73;;
29294;SDS011;16305;48.566;8.846;2022-10-23T16:31:21;10.83;;;7.00;;
29294;SDS011;16305;48.566;8.846;2022-10-23T16:33:48;9.37;;;6.03;;
29294;SDS011;16305;48.566;8.846;2022-10-23T16:36:14;9.33;;;5.43;;